PIMOHWEATHER Station Historical Data
Daily Summary for January 30, 2020 Units:  Metric    English   Both
Daily Weekly Monthly Yearly
  High: Low: Average:
Temperature: 32.0 °C 24.0 °C 26.4 °C
Dew Point: 23.0 °C 20.0 °C 21.5 °C
Humidity: 87% 54% 76%
Wind Speed: 37km/h 9km/h 19.9km/h
Wind Gust: 44km/h - -
Wind- - SSW
Pressure: 1013.2 hPa 1007.2 hPa -
Precipitation: 0.00 mm    
 
 
Tabular Data for January 30, 2020
Time Temperature Dew Point Pressure Wind Wind Speed Wind Gust Humidity Rainfall Rate (Hourly) solar
00:04 25.0 °C 22.0 °C 1011.5 hPa North 15 km/h 16 km/h 85% 0.00 mm 0.00 W/m2
00:09 25.0 °C 22.0 °C 1011.3 hPa North 17 km/h 24 km/h 85% 0.00 mm 0.00 W/m2
00:14 25.0 °C 22.0 °C 1011.3 hPa North 14 km/h 16 km/h 85% 0.00 mm 0.00 W/m2
00:19 25.0 °C 22.0 °C 1011.3 hPa North 15 km/h 16 km/h 85% 0.00 mm 0.00 W/m2
00:24 25.0 °C 22.0 °C 1011.3 hPa North 19 km/h 20 km/h 85% 0.00 mm 0.00 W/m2
00:29 25.0 °C 22.0 °C 1011.3 hPa North 14 km/h 20 km/h 85% 0.00 mm 0.00 W/m2
00:34 25.0 °C 22.0 °C 1011.2 hPa North 15 km/h 20 km/h 85% 0.00 mm 0.00 W/m2
00:39 25.0 °C 22.0 °C 1011.2 hPa North 15 km/h 20 km/h 85% 0.00 mm 0.00 W/m2
00:44 25.0 °C 22.0 °C 1011.0 hPa North 16 km/h 20 km/h 85% 0.00 mm 0.00 W/m2
00:49 25.0 °C 22.0 °C 1011.0 hPa North 15 km/h 16 km/h 85% 0.00 mm 0.00 W/m2
00:54 25.0 °C 22.0 °C 1011.0 hPa North 18 km/h 20 km/h 85% 0.00 mm 0.00 W/m2
00:59 25.0 °C 22.0 °C 1011.0 hPa North 16 km/h 20 km/h 85% 0.00 mm 0.00 W/m2
01:04 25.0 °C 22.0 °C 1011.0 hPa North 11 km/h 16 km/h 84% 0.00 mm 0.00 W/m2
01:09 25.0 °C 22.0 °C 1011.0 hPa North 13 km/h 16 km/h 84% 0.00 mm 0.00 W/m2
01:14 25.0 °C 22.0 °C 1011.0 hPa North 18 km/h 20 km/h 84% 0.00 mm 0.00 W/m2
01:19 25.0 °C 22.0 °C 1011.0 hPa NNE 14 km/h 20 km/h 84% 0.00 mm 0.00 W/m2
01:24 25.0 °C 22.0 °C 1011.0 hPa North 15 km/h 20 km/h 84% 0.00 mm 0.00 W/m2
01:29 25.0 °C 22.0 °C 1011.0 hPa NNE 15 km/h 20 km/h 84% 0.00 mm 0.00 W/m2
01:34 25.0 °C 22.0 °C 1010.8 hPa NNE 18 km/h 20 km/h 84% 0.00 mm 0.00 W/m2
01:39 25.0 °C 22.0 °C 1010.6 hPa North 17 km/h 20 km/h 84% 0.00 mm 0.00 W/m2
01:44 25.0 °C 22.0 °C 1010.6 hPa North 17 km/h 20 km/h 83% 0.00 mm 0.00 W/m2
01:49 25.0 °C 22.0 °C 1010.6 hPa North 20 km/h 24 km/h 83% 0.00 mm 0.00 W/m2
01:54 25.0 °C 22.0 °C 1010.6 hPa North 19 km/h 24 km/h 83% 0.00 mm 0.00 W/m2
01:59 25.0 °C 21.0 °C 1010.6 hPa North 15 km/h 20 km/h 83% 0.00 mm 0.00 W/m2
02:04 25.0 °C 21.0 °C 1010.3 hPa North 14 km/h 20 km/h 83% 0.00 mm 0.00 W/m2
02:09 25.0 °C 21.0 °C 1010.5 hPa North 29 km/h 32 km/h 83% 0.00 mm 0.00 W/m2
02:14 25.0 °C 21.0 °C 1010.3 hPa NNE 25 km/h 32 km/h 83% 0.00 mm 0.00 W/m2
02:19 25.0 °C 21.0 °C 1010.3 hPa NNE 20 km/h 20 km/h 83% 0.00 mm 0.00 W/m2
02:24 25.0 °C 21.0 °C 1010.3 hPa North 18 km/h 20 km/h 83% 0.00 mm 0.00 W/m2
02:29 25.0 °C 22.0 °C 1010.3 hPa NNE 17 km/h 20 km/h 84% 0.00 mm 0.00 W/m2
02:34 25.0 °C 22.0 °C 1010.3 hPa North 15 km/h 20 km/h 84% 0.00 mm 0.00 W/m2
02:39 25.0 °C 22.0 °C 1010.3 hPa North 16 km/h 20 km/h 84% 0.00 mm 0.00 W/m2
02:44 24.0 °C 21.0 °C 1010.3 hPa NNE 20 km/h 24 km/h 84% 0.00 mm 0.00 W/m2
02:49 24.0 °C 22.0 °C 1010.3 hPa NNE 19 km/h 24 km/h 85% 0.00 mm 0.00 W/m2
02:54 24.0 °C 22.0 °C 1010.3 hPa North 16 km/h 20 km/h 85% 0.00 mm 0.00 W/m2
02:59 24.0 °C 22.0 °C 1010.3 hPa NNE 18 km/h 20 km/h 85% 0.00 mm 0.00 W/m2
03:04 24.0 °C 22.0 °C 1010.3 hPa North 19 km/h 20 km/h 85% 0.00 mm 0.00 W/m2
03:09 24.0 °C 22.0 °C 1010.3 hPa North 16 km/h 20 km/h 86% 0.00 mm 0.00 W/m2
03:14 24.0 °C 22.0 °C 1010.3 hPa North 17 km/h 24 km/h 86% 0.00 mm 0.00 W/m2
03:19 24.0 °C 22.0 °C 1010.3 hPa North 15 km/h 24 km/h 86% 0.00 mm 0.00 W/m2
03:24 24.0 °C 22.0 °C 1010.5 hPa North 15 km/h 20 km/h 86% 0.00 mm 0.00 W/m2
03:29 24.0 °C 22.0 °C 1010.3 hPa North 23 km/h 28 km/h 86% 0.00 mm 0.00 W/m2
03:34 24.0 °C 22.0 °C 1010.3 hPa North 13 km/h 16 km/h 86% 0.00 mm 0.00 W/m2
03:39 24.0 °C 22.0 °C 1010.3 hPa North 18 km/h 24 km/h 86% 0.00 mm 0.00 W/m2
03:44 24.0 °C 22.0 °C 1010.3 hPa North 14 km/h 20 km/h 87% 0.00 mm 0.00 W/m2
03:49 24.0 °C 22.0 °C 1010.3 hPa NNW 15 km/h 20 km/h 87% 0.00 mm 0.00 W/m2
03:54 24.0 °C 22.0 °C 1010.3 hPa North 16 km/h 20 km/h 87% 0.00 mm 0.00 W/m2
03:59 24.0 °C 22.0 °C 1010.3 hPa NNW 14 km/h 16 km/h 87% 0.00 mm 0.00 W/m2
04:04 24.0 °C 22.0 °C 1010.3 hPa NNW 19 km/h 24 km/h 87% 0.00 mm 0.00 W/m2
04:09 24.0 °C 22.0 °C 1010.3 hPa North 13 km/h 16 km/h 87% 0.00 mm 0.00 W/m2
04:14 24.0 °C 22.0 °C 1010.6 hPa North 15 km/h 16 km/h 87% 0.00 mm 0.00 W/m2
04:19 24.0 °C 22.0 °C 1010.6 hPa North 15 km/h 16 km/h 87% 0.00 mm 0.00 W/m2
04:24 24.0 °C 22.0 °C 1010.8 hPa North 15 km/h 16 km/h 87% 0.00 mm 0.00 W/m2
04:29 24.0 °C 22.0 °C 1010.8 hPa North 17 km/h 20 km/h 87% 0.00 mm 0.00 W/m2
04:34 24.0 °C 22.0 °C 1010.8 hPa North 15 km/h 20 km/h 87% 0.00 mm 0.00 W/m2
04:39 24.0 °C 22.0 °C 1011.0 hPa NNW 15 km/h 16 km/h 87% 0.00 mm 0.00 W/m2
04:44 24.0 °C 22.0 °C 1011.0 hPa North 17 km/h 20 km/h 87% 0.00 mm 0.00 W/m2
04:49 24.0 °C 21.0 °C 1011.0 hPa North 18 km/h 24 km/h 86% 0.00 mm 0.00 W/m2
04:54 24.0 °C 21.0 °C 1011.0 hPa North 15 km/h 16 km/h 86% 0.00 mm 0.00 W/m2
04:59 24.0 °C 21.0 °C 1011.0 hPa North 15 km/h 16 km/h 86% 0.00 mm 0.00 W/m2
05:04 24.0 °C 21.0 °C 1011.3 hPa North 20 km/h 24 km/h 86% 0.00 mm 0.00 W/m2
05:09 24.0 °C 21.0 °C 1011.3 hPa North 12 km/h 16 km/h 86% 0.00 mm 0.00 W/m2
05:14 24.0 °C 21.0 °C 1011.3 hPa North 13 km/h 16 km/h 85% 0.00 mm 0.00 W/m2
05:19 24.0 °C 21.0 °C 1011.5 hPa North 15 km/h 16 km/h 85% 0.00 mm 0.00 W/m2
05:24 24.0 °C 21.0 °C 1011.7 hPa North 15 km/h 16 km/h 85% 0.00 mm 0.00 W/m2
05:29 24.0 °C 21.0 °C 1011.7 hPa North 18 km/h 24 km/h 86% 0.00 mm 0.00 W/m2
05:34 24.0 °C 21.0 °C 1011.7 hPa NNW 10 km/h 12 km/h 86% 0.00 mm 0.00 W/m2
05:39 24.0 °C 21.0 °C 1011.7 hPa North 17 km/h 20 km/h 86% 0.00 mm 0.00 W/m2
05:44 24.0 °C 21.0 °C 1011.7 hPa North 19 km/h 20 km/h 86% 0.00 mm 0.00 W/m2
05:49 24.0 °C 21.0 °C 1011.7 hPa NNW 16 km/h 20 km/h 86% 0.00 mm 0.00 W/m2
05:54 24.0 °C 21.0 °C 1011.7 hPa North 15 km/h 16 km/h 86% 0.00 mm 0.00 W/m2
05:59 24.0 °C 21.0 °C 1012.0 hPa North 15 km/h 16 km/h 86% 0.00 mm 0.00 W/m2
06:04 24.0 °C 21.0 °C 1012.0 hPa North 15 km/h 16 km/h 86% 0.00 mm 0.00 W/m2
06:09 24.0 °C 21.0 °C 1012.0 hPa North 13 km/h 16 km/h 86% 0.00 mm 0.00 W/m2
06:14 24.0 °C 21.0 °C 1012.0 hPa North 10 km/h 12 km/h 86% 0.00 mm 0.00 W/m2
06:19 24.0 °C 21.0 °C 1012.0 hPa NNE 17 km/h 24 km/h 86% 0.00 mm 0.00 W/m2
06:24 24.0 °C 21.0 °C 1012.4 hPa North 14 km/h 16 km/h 86% 0.00 mm 0.00 W/m2
06:29 24.0 °C 21.0 °C 1012.4 hPa North 14 km/h 20 km/h 86% 0.00 mm 2.04 W/m2
06:34 24.0 °C 21.0 °C 1012.4 hPa North 16 km/h 20 km/h 86% 0.00 mm 4.86 W/m2
06:39 24.0 °C 21.0 °C 1012.4 hPa North 19 km/h 20 km/h 86% 0.00 mm 8.71 W/m2
06:44 24.0 °C 21.0 °C 1012.6 hPa North 12 km/h 16 km/h 86% 0.00 mm 12.98 W/m2
06:49 24.0 °C 21.0 °C 1012.7 hPa North 18 km/h 20 km/h 86% 0.00 mm 18.97 W/m2
06:54 24.0 °C 21.0 °C 1012.7 hPa North 16 km/h 20 km/h 86% 0.00 mm 24.49 W/m2
06:59 24.0 °C 21.0 °C 1012.7 hPa North 18 km/h 20 km/h 85% 0.00 mm 29.51 W/m2
07:04 24.0 °C 21.0 °C 1012.7 hPa North 19 km/h 24 km/h 85% 0.00 mm 34.27 W/m2
07:09 24.0 °C 21.0 °C 1012.9 hPa North 23 km/h 32 km/h 85% 0.00 mm 39.18 W/m2
07:14 24.0 °C 21.0 °C 1012.9 hPa North 16 km/h 24 km/h 85% 0.00 mm 44.11 W/m2
07:19 24.0 °C 21.0 °C 1012.9 hPa North 17 km/h 20 km/h 85% 0.00 mm 50.48 W/m2
07:24 24.0 °C 21.0 °C 1012.9 hPa North 20 km/h 28 km/h 84% 0.00 mm 55.03 W/m2
07:29 24.0 °C 21.0 °C 1012.9 hPa NNE 22 km/h 24 km/h 84% 0.00 mm 58.39 W/m2
07:34 24.0 °C 21.0 °C 1012.9 hPa North 17 km/h 24 km/h 83% 0.00 mm 62.07 W/m2
07:39 24.0 °C 21.0 °C 1012.9 hPa North 22 km/h 24 km/h 83% 0.00 mm 65.93 W/m2
07:44 24.0 °C 21.0 °C 1012.9 hPa North 19 km/h 24 km/h 82% 0.00 mm 70.19 W/m2
07:46 25.0 °C 21.0 °C 1012.9 hPa North 25 km/h 28 km/h 82% 0.00 mm 71.59 W/m2
07:54 25.0 °C 21.0 °C 1012.9 hPa North 13 km/h 20 km/h 82% 0.00 mm 80.84 W/m2
07:59 25.0 °C 21.0 °C 1012.9 hPa North 28 km/h 28 km/h 82% 0.00 mm 86.36 W/m2
08:04 25.0 °C 21.0 °C 1012.9 hPa North 24 km/h 28 km/h 82% 0.00 mm 92.14 W/m2
08:09 25.0 °C 21.0 °C 1013.2 hPa North 26 km/h 32 km/h 80% 0.00 mm 98.72 W/m2
08:14 25.0 °C 21.0 °C 1013.2 hPa North 28 km/h 32 km/h 80% 0.00 mm 105.74 W/m2
08:19 25.0 °C 21.0 °C 1011.6 hPa North 24 km/h 28 km/h 80% 0.00 mm 111.76 W/m2
08:24 25.0 °C 21.0 °C 1011.6 hPa NNW 24 km/h 28 km/h 79% 0.00 mm 120.08 W/m2
08:29 25.0 °C 21.0 °C 1011.6 hPa North 21 km/h 32 km/h 78% 0.00 mm 128.20 W/m2
08:34 26.0 °C 21.0 °C 1011.7 hPa North 23 km/h 28 km/h 77% 0.00 mm 135.23 W/m2
08:39 26.0 °C 21.0 °C 1011.7 hPa NNW 26 km/h 32 km/h 76% 0.00 mm 143.45 W/m2
08:43 26.0 °C 21.0 °C 1011.7 hPa North 23 km/h 28 km/h 75% 0.00 mm 149.93 W/m2
08:49 26.0 °C 21.0 °C 1011.7 hPa North 17 km/h 28 km/h 76% 0.00 mm 160.16 W/m2
08:54 26.0 °C 21.0 °C 1011.7 hPa North 24 km/h 28 km/h 74% 0.00 mm 169.65 W/m2
08:59 26.0 °C 21.0 °C 1011.7 hPa North 23 km/h 28 km/h 73% 0.00 mm 177.31 W/m2
09:04 26.0 °C 21.0 °C 1011.8 hPa North 23 km/h 28 km/h 73% 0.00 mm 187.37 W/m2
09:09 27.0 °C 21.0 °C 1011.8 hPa NNW 22 km/h 24 km/h 73% 0.00 mm 199.06 W/m2
09:14 27.0 °C 21.0 °C 1011.9 hPa North 25 km/h 28 km/h 72% 0.00 mm 208.48 W/m2
09:19 26.0 °C 21.0 °C 1012.0 hPa North 26 km/h 28 km/h 72% 0.00 mm 214.67 W/m2
09:24 26.0 °C 21.0 °C 1011.9 hPa North 26 km/h 28 km/h 73% 0.00 mm 223.77 W/m2
09:29 26.0 °C 21.0 °C 1011.9 hPa NNW 23 km/h 28 km/h 72% 0.00 mm 233.78 W/m2
09:34 27.0 °C 21.0 °C 1011.9 hPa North 24 km/h 28 km/h 72% 0.00 mm 241.41 W/m2
09:39 27.0 °C 21.0 °C 1011.9 hPa North 21 km/h 28 km/h 72% 0.00 mm 248.56 W/m2
09:44 27.0 °C 21.0 °C 1011.9 hPa North 21 km/h 24 km/h 72% 0.00 mm 256.68 W/m2
09:49 27.0 °C 21.0 °C 1011.9 hPa North 21 km/h 24 km/h 71% 0.00 mm 267.25 W/m2
09:54 27.0 °C 21.0 °C 1011.7 hPa North 17 km/h 20 km/h 71% 0.00 mm 277.28 W/m2
09:59 28.0 °C 21.0 °C 1011.7 hPa North 25 km/h 28 km/h 71% 0.00 mm 285.58 W/m2
10:04 28.0 °C 21.0 °C 1011.8 hPa North 20 km/h 28 km/h 69% 0.00 mm 291.55 W/m2
10:09 28.0 °C 21.0 °C 1011.5 hPa NNW 19 km/h 28 km/h 69% 0.00 mm 295.36 W/m2
10:14 28.0 °C 21.0 °C 1011.4 hPa NW 23 km/h 28 km/h 69% 0.00 mm 308.70 W/m2
10:19 28.0 °C 21.0 °C 1011.6 hPa North 17 km/h 24 km/h 68% 0.00 mm 318.90 W/m2
10:24 28.0 °C 21.0 °C 1011.4 hPa NW 24 km/h 28 km/h 67% 0.00 mm 323.79 W/m2
10:29 28.0 °C 21.0 °C 1011.4 hPa WNW 20 km/h 24 km/h 67% 0.00 mm 327.95 W/m2
10:34 28.0 °C 21.0 °C 1011.2 hPa NNW 19 km/h 20 km/h 68% 0.00 mm 333.58 W/m2
10:39 28.0 °C 21.0 °C 1011.3 hPa NNW 21 km/h 28 km/h 68% 0.00 mm 337.55 W/m2
10:44 28.0 °C 21.0 °C 1011.3 hPa NNW 18 km/h 28 km/h 68% 0.00 mm 344.93 W/m2
10:49 28.0 °C 22.0 °C 1011.4 hPa NNW 21 km/h 28 km/h 68% 0.00 mm 352.42 W/m2
10:54 28.0 °C 22.0 °C 1011.2 hPa NNW 24 km/h 24 km/h 69% 0.00 mm 354.45 W/m2
10:59 28.0 °C 22.0 °C 1011.1 hPa NW 22 km/h 24 km/h 69% 0.00 mm 353.06 W/m2
11:04 29.0 °C 22.0 °C 1010.9 hPa NW 17 km/h 20 km/h 68% 0.00 mm 359.88 W/m2
11:09 29.0 °C 22.0 °C 1011.1 hPa NW 23 km/h 28 km/h 67% 0.00 mm 363.73 W/m2
11:14 29.0 °C 22.0 °C 1010.8 hPa NW 23 km/h 24 km/h 68% 0.00 mm 372.07 W/m2
11:19 28.0 °C 22.0 °C 1010.8 hPa NW 25 km/h 28 km/h 68% 0.00 mm 369.65 W/m2
11:24 29.0 °C 22.0 °C 1010.7 hPa NW 27 km/h 32 km/h 68% 0.00 mm 376.67 W/m2
11:29 29.0 °C 22.0 °C 1010.5 hPa NNW 20 km/h 24 km/h 68% 0.00 mm 381.07 W/m2
11:34 29.0 °C 22.0 °C 1010.5 hPa NW 15 km/h 20 km/h 68% 0.00 mm 389.05 W/m2
11:39 29.0 °C 22.0 °C 1010.5 hPa SW 18 km/h 24 km/h 67% 0.00 mm 390.42 W/m2
11:44 29.0 °C 22.0 °C 1010.2 hPa WNW 23 km/h 24 km/h 67% 0.00 mm 390.44 W/m2
11:49 30.0 °C 23.0 °C 1010.1 hPa NW 18 km/h 24 km/h 67% 0.00 mm 387.68 W/m2
11:54 30.0 °C 23.0 °C 1010.1 hPa WNW 19 km/h 24 km/h 66% 0.00 mm 397.15 W/m2
11:59 29.0 °C 22.0 °C 1010.1 hPa NW 15 km/h 16 km/h 67% 0.00 mm 396.66 W/m2
12:04 30.0 °C 23.0 °C 1010.0 hPa NW 17 km/h 20 km/h 68% 0.00 mm 395.70 W/m2
12:09 29.0 °C 22.0 °C 1009.9 hPa NW 20 km/h 24 km/h 68% 0.00 mm 397.93 W/m2
12:14 29.0 °C 22.0 °C 1009.8 hPa NW 23 km/h 28 km/h 68% 0.00 mm 396.29 W/m2
12:19 30.0 °C 23.0 °C 1009.8 hPa NW 20 km/h 24 km/h 67% 0.00 mm 405.37 W/m2
12:24 30.0 °C 23.0 °C 1009.7 hPa West 14 km/h 20 km/h 66% 0.00 mm 406.40 W/m2
12:29 30.0 °C 23.0 °C 1009.4 hPa NNW 22 km/h 24 km/h 67% 0.00 mm 402.48 W/m2
12:34 30.0 °C 23.0 °C 1009.5 hPa WNW 14 km/h 16 km/h 67% 0.00 mm 401.55 W/m2
12:39 30.0 °C 23.0 °C 1009.3 hPa WNW 15 km/h 20 km/h 64% 0.00 mm 408.97 W/m2
12:44 30.0 °C 23.0 °C 1009.3 hPa NW 21 km/h 24 km/h 67% 0.00 mm 399.69 W/m2
12:49 30.0 °C 23.0 °C 1009.2 hPa NW 19 km/h 28 km/h 66% 0.00 mm 389.22 W/m2
12:54 30.0 °C 23.0 °C 1009.2 hPa NNW 28 km/h 32 km/h 65% 0.00 mm 399.86 W/m2
12:59 30.0 °C 23.0 °C 1008.9 hPa NW 22 km/h 28 km/h 67% 0.00 mm 394.53 W/m2
13:04 31.0 °C 23.0 °C 1009.0 hPa WNW 21 km/h 24 km/h 65% 0.00 mm 397.59 W/m2
13:09 30.0 °C 23.0 °C 1008.7 hPa NW 23 km/h 32 km/h 66% 0.00 mm 394.92 W/m2
13:14 30.0 °C 23.0 °C 1008.5 hPa WSW 15 km/h 20 km/h 65% 0.00 mm 396.98 W/m2
13:19 31.0 °C 23.0 °C 1008.5 hPa WNW 15 km/h 24 km/h 65% 0.00 mm 394.77 W/m2
13:24 31.0 °C 23.0 °C 1008.6 hPa NW 25 km/h 28 km/h 64% 0.00 mm 395.48 W/m2
13:29 31.0 °C 23.0 °C 1008.6 hPa WNW 18 km/h 20 km/h 64% 0.00 mm 385.57 W/m2
13:34 31.0 °C 23.0 °C 1008.4 hPa NW 14 km/h 20 km/h 64% 0.00 mm 383.64 W/m2
13:39 31.0 °C 23.0 °C 1008.5 hPa NW 13 km/h 16 km/h 63% 0.00 mm 377.45 W/m2
13:44 31.0 °C 23.0 °C 1008.4 hPa NW 15 km/h 16 km/h 62% 0.00 mm 372.75 W/m2
13:49 31.0 °C 23.0 °C 1008.1 hPa South 16 km/h 20 km/h 63% 0.00 mm 385.28 W/m2
13:54 32.0 °C 23.0 °C 1008.2 hPa South 10 km/h 12 km/h 61% 0.00 mm 385.04 W/m2
13:59 31.0 °C 23.0 °C 1008.2 hPa SSE 12 km/h 20 km/h 62% 0.00 mm 384.62 W/m2
14:04 31.0 °C 23.0 °C 1008.1 hPa South 10 km/h 16 km/h 61% 0.00 mm 389.12 W/m2
14:09 32.0 °C 23.0 °C 1007.9 hPa South 18 km/h 24 km/h 60% 0.00 mm 391.94 W/m2
14:14 32.0 °C 23.0 °C 1007.7 hPa South 17 km/h 20 km/h 62% 0.00 mm 385.57 W/m2
14:19 31.0 °C 23.0 °C 1007.7 hPa SSW 9 km/h 12 km/h 61% 0.00 mm 384.20 W/m2
14:24 32.0 °C 23.0 °C 1007.7 hPa SSW 15 km/h 20 km/h 60% 0.00 mm 375.45 W/m2
14:29 31.0 °C 23.0 °C 1007.8 hPa SSW 15 km/h 16 km/h 61% 0.00 mm 369.62 W/m2
14:34 32.0 °C 23.0 °C 1007.7 hPa SW 13 km/h 24 km/h 59% 0.00 mm 386.01 W/m2
14:39 32.0 °C 23.0 °C 1007.7 hPa SSE 12 km/h 16 km/h 58% 0.00 mm 387.73 W/m2
14:44 32.0 °C 23.0 °C 1007.5 hPa South 17 km/h 20 km/h 58% 0.00 mm 388.05 W/m2
14:49 32.0 °C 22.0 °C 1007.5 hPa NW 21 km/h 28 km/h 57% 0.00 mm 379.90 W/m2
14:54 31.0 °C 21.0 °C 1007.5 hPa NW 25 km/h 28 km/h 57% 0.00 mm 376.74 W/m2
14:59 31.0 °C 21.0 °C 1007.5 hPa NW 20 km/h 24 km/h 54% 0.00 mm 370.82 W/m2
15:04 31.0 °C 20.0 °C 1007.4 hPa NW 24 km/h 28 km/h 54% 0.00 mm 367.54 W/m2
15:09 31.0 °C 21.0 °C 1007.4 hPa NW 21 km/h 24 km/h 54% 0.00 mm 363.04 W/m2
15:14 31.0 °C 21.0 °C 1007.2 hPa NW 22 km/h 28 km/h 55% 0.00 mm 355.26 W/m2
15:19 31.0 °C 21.0 °C 1007.4 hPa WNW 24 km/h 28 km/h 56% 0.00 mm 350.34 W/m2
15:24 31.0 °C 21.0 °C 1007.4 hPa NW 25 km/h 28 km/h 57% 0.00 mm 341.19 W/m2
15:29 30.0 °C 21.0 °C 1007.5 hPa NW 22 km/h 28 km/h 59% 0.00 mm 331.84 W/m2
15:34 31.0 °C 22.0 °C 1007.4 hPa NW 20 km/h 24 km/h 59% 0.00 mm 308.97 W/m2
15:39 31.0 °C 22.0 °C 1007.4 hPa NW 22 km/h 32 km/h 60% 0.00 mm 304.86 W/m2
15:44 31.0 °C 22.0 °C 1007.5 hPa NW 23 km/h 28 km/h 60% 0.00 mm 300.55 W/m2
15:49 30.0 °C 22.0 °C 1007.5 hPa NW 34 km/h 40 km/h 61% 0.00 mm 284.99 W/m2
15:54 30.0 °C 22.0 °C 1007.6 hPa NW 25 km/h 28 km/h 61% 0.00 mm 279.56 W/m2
15:59 31.0 °C 22.0 °C 1007.8 hPa NW 18 km/h 24 km/h 61% 0.00 mm 278.11 W/m2
16:04 30.0 °C 22.0 °C 1007.8 hPa NW 19 km/h 20 km/h 62% 0.00 mm 277.77 W/m2
16:09 30.0 °C 22.0 °C 1007.8 hPa WNW 21 km/h 24 km/h 62% 0.00 mm 198.74 W/m2
16:14 30.0 °C 21.0 °C 1007.9 hPa NW 26 km/h 32 km/h 62% 0.00 mm 215.82 W/m2
16:19 29.0 °C 21.0 °C 1007.9 hPa NW 26 km/h 32 km/h 62% 0.00 mm 234.61 W/m2
16:24 30.0 °C 21.0 °C 1007.9 hPa NW 21 km/h 24 km/h 62% 0.00 mm 233.12 W/m2
16:29 30.0 °C 21.0 °C 1008.0 hPa NW 26 km/h 28 km/h 62% 0.00 mm 220.79 W/m2
16:34 29.0 °C 21.0 °C 1008.1 hPa NW 25 km/h 28 km/h 63% 0.00 mm 215.80 W/m2
16:39 29.0 °C 22.0 °C 1008.0 hPa NW 25 km/h 28 km/h 65% 0.00 mm 172.91 W/m2
16:44 29.0 °C 22.0 °C 1008.1 hPa NNW 32 km/h 44 km/h 65% 0.00 mm 162.70 W/m2
16:49 29.0 °C 22.0 °C 1008.2 hPa NW 26 km/h 32 km/h 65% 0.00 mm 159.99 W/m2
16:54 29.0 °C 21.0 °C 1008.3 hPa NNW 21 km/h 28 km/h 64% 0.00 mm 134.42 W/m2
16:59 29.0 °C 21.0 °C 1008.3 hPa NNW 17 km/h 24 km/h 64% 0.00 mm 69.49 W/m2
17:04 29.0 °C 21.0 °C 1008.3 hPa NNW 24 km/h 28 km/h 65% 0.00 mm 60.85 W/m2
17:09 28.0 °C 21.0 °C 1008.5 hPa NNW 28 km/h 36 km/h 65% 0.00 mm 59.74 W/m2
17:14 28.0 °C 21.0 °C 1008.5 hPa North 22 km/h 28 km/h 66% 0.00 mm 42.62 W/m2
17:19 28.0 °C 21.0 °C 1008.6 hPa NNW 20 km/h 24 km/h 67% 0.00 mm 34.97 W/m2
17:24 28.0 °C 21.0 °C 1008.6 hPa NNW 21 km/h 28 km/h 68% 0.00 mm 26.82 W/m2
17:29 28.0 °C 21.0 °C 1008.8 hPa NNW 23 km/h 32 km/h 68% 0.00 mm 22.68 W/m2
17:34 28.0 °C 21.0 °C 1008.8 hPa NNW 19 km/h 24 km/h 69% 0.00 mm 17.57 W/m2
17:39 28.0 °C 21.0 °C 1008.9 hPa NNW 16 km/h 24 km/h 69% 0.00 mm 10.64 W/m2
17:44 27.0 °C 21.0 °C 1009.0 hPa North 25 km/h 28 km/h 70% 0.00 mm 6.83 W/m2
17:49 27.0 °C 21.0 °C 1009.0 hPa North 21 km/h 24 km/h 69% 0.00 mm 4.16 W/m2
17:54 27.0 °C 21.0 °C 1009.0 hPa North 25 km/h 28 km/h 69% 0.00 mm 0.91 W/m2
17:59 27.0 °C 21.0 °C 1009.1 hPa North 23 km/h 32 km/h 69% 0.00 mm 0.00 W/m2
18:04 27.0 °C 21.0 °C 1009.0 hPa North 21 km/h 28 km/h 70% 0.00 mm 0.00 W/m2
18:14 27.0 °C 21.0 °C 1009.5 hPa NNW 23 km/h 32 km/h 70% 0.00 mm 0.00 W/m2
18:19 27.0 °C 21.0 °C 1009.5 hPa NNW 18 km/h 20 km/h 71% 0.00 mm 0.00 W/m2
18:24 27.0 °C 21.0 °C 1009.6 hPa North 26 km/h 28 km/h 72% 0.00 mm 0.00 W/m2
18:29 27.0 °C 21.0 °C 1009.7 hPa NNW 22 km/h 28 km/h 72% 0.00 mm 0.00 W/m2
18:32 27.0 °C 21.0 °C 1009.7 hPa NNW 25 km/h 32 km/h 72% 0.00 mm 0.00 W/m2
18:39 27.0 °C 21.0 °C 1009.6 hPa NNW 18 km/h 24 km/h 73% 0.00 mm 0.00 W/m2
18:44 27.0 °C 21.0 °C 1009.9 hPa NNW 18 km/h 20 km/h 73% 0.00 mm 0.00 W/m2
18:49 26.0 °C 21.0 °C 1009.7 hPa North 22 km/h 28 km/h 73% 0.00 mm 0.00 W/m2
18:54 26.0 °C 21.0 °C 1009.9 hPa North 27 km/h 32 km/h 74% 0.00 mm 0.00 W/m2
18:59 26.0 °C 21.0 °C 1009.9 hPa North 34 km/h 44 km/h 74% 0.00 mm 0.00 W/m2
19:04 26.0 °C 21.0 °C 1009.9 hPa North 24 km/h 24 km/h 73% 0.00 mm 0.00 W/m2
19:09 26.0 °C 21.0 °C 1009.9 hPa NNW 25 km/h 36 km/h 73% 0.00 mm 0.00 W/m2
19:14 26.0 °C 21.0 °C 1010.1 hPa North 22 km/h 32 km/h 74% 0.00 mm 0.00 W/m2
19:19 26.0 °C 21.0 °C 1010.2 hPa North 29 km/h 36 km/h 75% 0.00 mm 0.00 W/m2
19:24 26.0 °C 21.0 °C 1010.4 hPa North 35 km/h 40 km/h 75% 0.00 mm 0.00 W/m2
19:29 26.0 °C 21.0 °C 1010.4 hPa North 28 km/h 36 km/h 75% 0.00 mm 0.00 W/m2
19:34 26.0 °C 21.0 °C 1010.4 hPa North 25 km/h 28 km/h 75% 0.00 mm 0.00 W/m2
19:39 25.0 °C 21.0 °C 1010.4 hPa NNW 21 km/h 28 km/h 76% 0.00 mm 0.00 W/m2
19:44 25.0 °C 21.0 °C 1010.5 hPa North 25 km/h 36 km/h 76% 0.00 mm 0.00 W/m2
19:49 25.0 °C 21.0 °C 1010.5 hPa North 28 km/h 32 km/h 77% 0.00 mm 0.00 W/m2
19:54 25.0 °C 21.0 °C 1010.5 hPa North 30 km/h 40 km/h 77% 0.00 mm 0.00 W/m2
19:59 25.0 °C 21.0 °C 1010.7 hPa NNW 23 km/h 32 km/h 77% 0.00 mm 0.00 W/m2
20:04 25.0 °C 21.0 °C 1010.8 hPa North 24 km/h 36 km/h 77% 0.00 mm 0.00 W/m2
20:09 25.0 °C 21.0 °C 1010.8 hPa North 29 km/h 36 km/h 77% 0.00 mm 0.00 W/m2
20:14 25.0 °C 21.0 °C 1010.8 hPa North 29 km/h 36 km/h 77% 0.00 mm 0.00 W/m2
20:19 25.0 °C 21.0 °C 1010.8 hPa North 32 km/h 36 km/h 77% 0.00 mm 0.00 W/m2
20:24 25.0 °C 21.0 °C 1010.8 hPa North 25 km/h 28 km/h 78% 0.00 mm 0.00 W/m2
20:29 25.0 °C 21.0 °C 1010.8 hPa North 34 km/h 40 km/h 78% 0.00 mm 0.00 W/m2
20:34 25.0 °C 21.0 °C 1010.9 hPa North 26 km/h 32 km/h 78% 0.00 mm 0.00 W/m2
20:39 25.0 °C 21.0 °C 1010.7 hPa North 28 km/h 36 km/h 78% 0.00 mm 0.00 W/m2
20:44 25.0 °C 21.0 °C 1010.9 hPa North 31 km/h 40 km/h 78% 0.00 mm 0.00 W/m2
20:49 25.0 °C 21.0 °C 1011.0 hPa North 24 km/h 28 km/h 78% 0.00 mm 0.00 W/m2
20:54 25.0 °C 21.0 °C 1010.8 hPa North 24 km/h 32 km/h 78% 0.00 mm 0.00 W/m2
20:59 25.0 °C 21.0 °C 1010.8 hPa North 19 km/h 20 km/h 78% 0.00 mm 0.00 W/m2
21:04 25.0 °C 21.0 °C 1010.8 hPa North 31 km/h 32 km/h 79% 0.00 mm 0.00 W/m2
21:09 24.0 °C 21.0 °C 1010.8 hPa North 37 km/h 40 km/h 79% 0.00 mm 0.00 W/m2
21:14 24.0 °C 21.0 °C 1010.8 hPa North 22 km/h 24 km/h 79% 0.00 mm 0.00 W/m2
21:19 24.0 °C 21.0 °C 1011.0 hPa North 21 km/h 24 km/h 79% 0.00 mm 0.00 W/m2
21:24 24.0 °C 21.0 °C 1011.0 hPa North 28 km/h 32 km/h 79% 0.00 mm 0.00 W/m2
21:29 24.0 °C 21.0 °C 1011.0 hPa North 25 km/h 28 km/h 79% 0.00 mm 0.00 W/m2
21:30 24.0 °C 21.0 °C 1010.9 hPa NNE 15 km/h 20 km/h 79% 0.00 mm 0.00 W/m2
21:39 24.0 °C 21.0 °C 1011.0 hPa NNE 13 km/h 16 km/h 80% 0.00 mm 0.00 W/m2
21:43 24.0 °C 21.0 °C 1011.2 hPa North 18 km/h 20 km/h 80% 0.00 mm 0.00 W/m2
21:46 24.0 °C 21.0 °C 1011.1 hPa NNE 19 km/h 24 km/h 80% 0.00 mm 0.00 W/m2
22:04 24.0 °C 21.0 °C 1010.9 hPa North 11 km/h 12 km/h 80% 0.00 mm 0.00 W/m2
22:09 24.0 °C 21.0 °C 1011.0 hPa North 18 km/h 20 km/h 80% 0.00 mm 0.00 W/m2
22:14 24.0 °C 21.0 °C 1011.1 hPa North 20 km/h 24 km/h 80% 0.00 mm 0.00 W/m2
22:19 24.0 °C 21.0 °C 1011.1 hPa North 15 km/h 20 km/h 80% 0.00 mm 0.00 W/m2
22:24 24.0 °C 21.0 °C 1011.2 hPa North 20 km/h 24 km/h 81% 0.00 mm 0.00 W/m2
22:29 24.0 °C 21.0 °C 1011.1 hPa North 21 km/h 24 km/h 81% 0.00 mm 0.00 W/m2
22:34 24.0 °C 21.0 °C 1011.1 hPa North 22 km/h 28 km/h 81% 0.00 mm 0.00 W/m2
22:39 24.0 °C 21.0 °C 1011.1 hPa North 20 km/h 24 km/h 81% 0.00 mm 0.00 W/m2
22:44 24.0 °C 21.0 °C 1011.1 hPa North 21 km/h 24 km/h 81% 0.00 mm 0.00 W/m2
22:49 24.0 °C 21.0 °C 1011.1 hPa North 18 km/h 20 km/h 81% 0.00 mm 0.00 W/m2
22:54 24.0 °C 21.0 °C 1011.1 hPa North 19 km/h 20 km/h 81% 0.00 mm 0.00 W/m2
22:59 24.0 °C 21.0 °C 1011.0 hPa North 20 km/h 24 km/h 81% 0.00 mm 0.00 W/m2
23:04 24.0 °C 21.0 °C 1011.0 hPa North 15 km/h 20 km/h 81% 0.00 mm 0.00 W/m2
23:09 24.0 °C 21.0 °C 1010.9 hPa North 20 km/h 28 km/h 81% 0.00 mm 0.00 W/m2
23:14 24.0 °C 21.0 °C 1011.1 hPa NNE 21 km/h 24 km/h 82% 0.00 mm 0.00 W/m2
23:19 24.0 °C 21.0 °C 1011.1 hPa North 20 km/h 24 km/h 82% 0.00 mm 0.00 W/m2
23:24 24.0 °C 21.0 °C 1011.1 hPa North 19 km/h 24 km/h 82% 0.00 mm 0.00 W/m2
23:29 24.0 °C 21.0 °C 1011.0 hPa NNE 17 km/h 20 km/h 82% 0.00 mm 0.00 W/m2
23:34 24.0 °C 21.0 °C 1011.1 hPa North 14 km/h 24 km/h 82% 0.00 mm 0.00 W/m2
23:39 24.0 °C 21.0 °C 1011.0 hPa NNE 18 km/h 20 km/h 82% 0.00 mm 0.00 W/m2
23:44 24.0 °C 21.0 °C 1010.8 hPa North 20 km/h 24 km/h 82% 0.00 mm 0.00 W/m2
23:49 24.0 °C 21.0 °C 1010.9 hPa North 15 km/h 16 km/h 82% 0.00 mm 0.00 W/m2
23:54 24.0 °C 21.0 °C 1011.0 hPa North 19 km/h 24 km/h 83% 0.00 mm 0.00 W/m2
23:59 24.0 °C 21.0 °C 1010.9 hPa North 19 km/h 24 km/h 83% 0.00 mm 0.00 W/m2
PIMOHWEATHER Philippines
Compliments of Weather Underground - 2 mb